createdAt,value
2019-03-10T00:01:57.208Z,77.39
2019-03-10T00:04:26.434Z,77.26
2019-03-10T00:06:55.369Z,77.26
2019-03-10T00:09:23.988Z,76.91
2019-03-10T00:11:53.214Z,76.68
2019-03-10T00:14:21.911Z,76.22
2019-03-10T00:16:50.787Z,76.00
2019-03-10T00:19:19.416Z,75.91
2019-03-10T00:21:48.162Z,75.82
2019-03-10T00:24:17.163Z,76.06
2019-03-10T00:26:46.360Z,75.96
2019-03-10T00:29:15.356Z,75.98
2019-03-10T00:31:44.269Z,75.98
2019-03-10T00:34:12.919Z,76.85
2019-03-10T00:36:42.073Z,76.67
2019-03-10T00:39:46.432Z,77.17
2019-03-10T00:43:03.269Z,77.33
2019-03-10T00:46:02.969Z,77.05
2019-03-10T00:49:06.664Z,76.59
2019-03-10T00:51:58.411Z,76.01
2019-03-10T00:54:27.303Z,76.39
2019-03-10T00:56:56.393Z,76.63
2019-03-10T00:59:25.904Z,78.52
2019-03-10T01:01:54.594Z,75.90
2019-03-10T01:04:23.643Z,75.90
2019-03-10T01:06:52.789Z,75.69
2019-03-10T01:09:21.448Z,76.41
2019-03-10T01:11:50.128Z,75.91
2019-03-10T01:14:19.357Z,75.45
2019-03-10T01:16:48.240Z,75.60
2019-03-10T01:19:17.901Z,75.00
2019-03-10T01:21:49.210Z,74.92
2019-03-10T01:24:18.294Z,75.31
2019-03-10T01:26:46.959Z,74.53
2019-03-10T01:29:17.612Z,74.53
2019-03-10T01:32:17.025Z,73.62
2019-03-10T01:34:54.811Z,73.70
2019-03-10T01:37:23.436Z,73.70
2019-03-10T01:39:52.405Z,73.76
2019-03-10T01:42:21.111Z,73.23
2019-03-10T01:44:49.713Z,72.63
2019-03-10T01:47:18.346Z,72.63
2019-03-10T01:49:47.347Z,73.19
2019-03-10T01:52:16.347Z,72.22
2019-03-10T01:54:45.891Z,72.56
2019-03-10T01:57:14.849Z,72.56
2019-03-10T01:59:43.939Z,71.65
2019-03-10T02:02:12.672Z,71.21
2019-03-10T02:04:41.621Z,70.08
2019-03-10T02:07:10.917Z,70.22
2019-03-10T02:09:39.808Z,70.22
2019-03-10T02:12:08.445Z,70.04
2019-03-10T02:14:37.078Z,69.80
2019-03-10T02:17:06.074Z,70.62
2019-03-10T02:19:34.749Z,70.62
2019-03-10T02:22:03.960Z,70.50
2019-03-10T02:24:32.954Z,71.03
2019-03-10T02:27:02.153Z,71.03
2019-03-10T02:29:30.836Z,70.90
2019-03-10T02:31:59.515Z,71.49
2019-03-10T02:34:28.157Z,69.80
2019-03-10T02:36:57.114Z,69.80
2019-03-10T02:39:25.750Z,70.60
2019-03-10T02:41:54.469Z,70.53
2019-03-10T02:44:23.478Z,70.53
2019-03-10T02:46:52.112Z,71.19
2019-03-10T02:49:20.743Z,71.19
2019-03-10T02:51:50.044Z,70.72
2019-03-10T02:54:21.720Z,71.22
2019-03-10T02:56:50.348Z,71.03
2019-03-10T02:59:19.280Z,70.08
2019-03-10T03:01:48.577Z,70.64
2019-03-10T03:04:17.231Z,70.64
2019-03-10T03:06:47.033Z,71.28
2019-03-10T03:09:16.282Z,70.70
2019-03-10T03:11:45.574Z,70.37
2019-03-10T03:14:14.780Z,70.69
2019-03-10T03:16:43.487Z,71.06
2019-03-10T03:19:12.482Z,70.78
2019-03-10T03:21:43.553Z,71.17
2019-03-10T03:24:12.188Z,71.17
2019-03-10T03:26:40.826Z,71.27
2019-03-10T03:29:09.555Z,71.27
2019-03-10T03:31:38.249Z,71.93
2019-03-10T03:34:07.267Z,72.24
2019-03-10T03:36:37.530Z,72.24
2019-03-10T03:39:19.456Z,72.65
2019-03-10T03:41:48.770Z,73.17
2019-03-10T03:44:17.456Z,73.76
2019-03-10T03:46:46.453Z,73.76
2019-03-10T03:49:15.456Z,73.96
2019-03-10T03:51:44.074Z,73.96
2019-03-10T03:54:12.732Z,73.78
2019-03-10T03:56:42.004Z,73.78
2019-03-10T03:59:10.903Z,74.40
2019-03-10T04:01:52.535Z,74.57
2019-03-10T04:04:21.223Z,74.40
2019-03-10T04:06:49.906Z,74.40
2019-03-10T04:09:18.596Z,73.74
2019-03-10T04:11:47.234Z,74.04
2019-03-10T04:14:16.439Z,73.91
2019-03-10T04:16:45.092Z,74.56
2019-03-10T04:19:14.312Z,74.05
2019-03-10T04:21:43.340Z,74.08
2019-03-10T04:24:12.222Z,74.48
2019-03-10T04:26:41.201Z,74.72
2019-03-10T04:29:10.290Z,74.39
2019-03-10T04:31:39.290Z,74.68
2019-03-10T04:34:08.277Z,73.96
2019-03-10T04:36:37.896Z,73.96
2019-03-10T04:39:07.435Z,74.45
2019-03-10T04:41:36.077Z,73.93
2019-03-10T04:44:04.734Z,74.04
2019-03-10T04:46:33.390Z,74.04
2019-03-10T04:49:02.038Z,74.28
2019-03-10T04:51:31.039Z,74.28
2019-03-10T04:53:59.653Z,74.58
2019-03-10T04:57:03.717Z,75.13
2019-03-10T04:59:32.635Z,74.89
2019-03-10T05:02:01.615Z,75.75
2019-03-10T05:04:31.650Z,75.64
2019-03-10T05:07:00.550Z,75.65
2019-03-10T05:09:29.518Z,76.36
2019-03-10T05:11:58.147Z,75.91
2019-03-10T05:14:27.097Z,75.91
2019-03-10T05:16:55.741Z,75.71
2019-03-10T05:19:24.370Z,76.82
2019-03-10T05:21:53.270Z,76.82
2019-03-10T05:24:22.553Z,77.18
2019-03-10T05:26:51.230Z,77.56
2019-03-10T05:29:19.863Z,79.26
2019-03-10T05:31:48.523Z,81.65
2019-03-10T05:34:17.505Z,84.46
2019-03-10T05:36:46.399Z,86.03
2019-03-10T05:39:15.288Z,86.90
2019-03-10T05:41:44.189Z,86.78
2019-03-10T05:44:12.852Z,87.21
2019-03-10T05:46:42.164Z,87.67
2019-03-10T05:49:11.192Z,87.47
2019-03-10T05:51:40.774Z,87.53
2019-03-10T05:54:09.585Z,87.30
2019-03-10T05:56:38.757Z,87.00
2019-03-10T05:59:07.754Z,87.12
2019-03-10T06:01:36.743Z,87.56
2019-03-10T06:04:08.548Z,87.17
2019-03-10T06:06:37.903Z,87.25
2019-03-10T06:09:07.413Z,86.96
2019-03-10T06:11:36.405Z,86.78
2019-03-10T06:14:05.399Z,86.56
2019-03-10T06:16:34.044Z,86.35
2019-03-10T06:19:02.980Z,85.59
2019-03-10T06:21:32.309Z,84.94
2019-03-10T06:24:00.957Z,84.70
2019-03-10T06:26:29.958Z,84.11
2019-03-10T06:28:59.262Z,84.51
2019-03-10T06:31:27.913Z,83.74
2019-03-10T06:33:56.842Z,83.51
2019-03-10T06:36:25.955Z,83.46
2019-03-10T06:38:55.406Z,83.29
2019-03-10T06:41:24.951Z,83.49
2019-03-10T06:43:53.962Z,83.39
2019-03-10T06:46:22.955Z,82.94
2019-03-10T06:48:52.241Z,82.98
2019-03-10T06:51:21.229Z,82.98
2019-03-10T06:53:50.245Z,83.21
2019-03-10T06:56:19.202Z,82.95
2019-03-10T06:58:47.902Z,82.95
2019-03-10T07:01:16.802Z,82.76
2019-03-10T07:03:45.785Z,82.62
2019-03-10T07:06:14.462Z,82.35
2019-03-10T07:08:44.804Z,82.51
2019-03-10T07:11:14.097Z,82.58
2019-03-10T07:13:43.208Z,82.52
2019-03-10T07:16:11.911Z,82.14
2019-03-10T07:18:43.355Z,81.94
2019-03-10T07:21:12.154Z,81.86
2019-03-10T07:23:41.528Z,81.86
2019-03-10T07:26:10.524Z,82.05
2019-03-10T07:28:44.155Z,81.61
2019-03-10T07:31:29.480Z,81.61
2019-03-10T07:34:17.422Z,81.05
2019-03-10T07:37:04.666Z,80.77
2019-03-10T07:39:43.955Z,80.56
2019-03-10T07:42:31.583Z,79.93
2019-03-10T07:45:18.641Z,79.76
2019-03-10T07:47:55.679Z,79.75
2019-03-10T07:50:40.762Z,78.66
2019-03-10T07:53:36.237Z,79.16
2019-03-10T07:56:11.755Z,77.85
2019-03-10T07:59:00.306Z,76.29
2019-03-10T08:01:37.286Z,76.02
2019-03-10T08:04:31.473Z,76.02
2019-03-10T08:07:25.254Z,77.14
2019-03-10T08:10:12.473Z,76.45
2019-03-10T08:13:15.572Z,76.64
2019-03-10T08:16:02.052Z,75.59
2019-03-10T08:18:50.318Z,73.90
2019-03-10T08:21:34.462Z,73.90
2019-03-10T08:24:09.881Z,72.54
2019-03-10T08:26:58.959Z,71.36
2019-03-10T08:29:56.123Z,71.36
2019-03-10T08:32:43.850Z,70.64
2019-03-10T08:35:18.289Z,71.89
2019-03-10T08:38:05.237Z,70.63
2019-03-10T08:40:56.106Z,70.88
2019-03-10T08:43:37.845Z,70.88
2019-03-10T08:46:20.200Z,70.67
2019-03-10T08:48:56.715Z,72.27
2019-03-10T08:51:43.584Z,69.54
2019-03-10T08:54:17.492Z,69.68
2019-03-10T08:57:04.778Z,71.09
2019-03-10T08:59:48.767Z,69.51
2019-03-10T09:02:35.981Z,69.16
2019-03-10T09:05:33.405Z,66.10
2019-03-10T09:08:21.088Z,66.12
2019-03-10T09:11:06.105Z,66.16
2019-03-10T09:13:44.252Z,65.93
2019-03-10T09:16:25.349Z,66.81
2019-03-10T09:19:16.160Z,67.80
2019-03-10T09:21:57.248Z,64.59
2019-03-10T09:24:51.074Z,64.59
2019-03-10T09:27:37.078Z,65.71
2019-03-10T09:30:24.060Z,66.98
2019-03-10T09:33:07.938Z,68.27
2019-03-10T09:35:55.884Z,69.03
2019-03-10T09:38:44.220Z,70.52
2019-03-10T09:41:43.938Z,68.76
2019-03-10T09:44:35.364Z,68.76
2019-03-10T09:47:21.523Z,69.02
2019-03-10T09:49:58.231Z,69.81
2019-03-10T09:52:40.804Z,69.61
2019-03-10T09:55:27.410Z,69.15
2019-03-10T09:58:15.089Z,69.30
2019-03-10T10:00:57.794Z,68.76
2019-03-10T10:03:45.466Z,68.77
2019-03-10T10:06:34.079Z,68.61
2019-03-10T10:09:27.554Z,68.95
2019-03-10T10:12:13.928Z,68.52
2019-03-10T10:15:17.013Z,67.81
2019-03-10T10:18:03.547Z,68.43
2019-03-10T10:20:57.883Z,66.78
2019-03-10T10:23:32.390Z,65.74
2019-03-10T10:26:11.693Z,64.64
2019-03-10T10:28:56.558Z,65.45
2019-03-10T10:31:41.279Z,65.46
2019-03-10T10:34:17.326Z,64.69
2019-03-10T10:37:04.195Z,63.67
2019-03-10T10:39:48.851Z,64.08
2019-03-10T10:42:31.944Z,62.99
2019-03-10T10:45:26.695Z,62.95
2019-03-10T10:48:05.810Z,61.87
2019-03-10T10:51:11.944Z,62.23
2019-03-10T10:53:50.262Z,63.48
2019-03-10T10:56:37.895Z,62.54
2019-03-10T10:59:16.533Z,63.60
2019-03-10T11:02:07.398Z,62.09
2019-03-10T11:05:01.429Z,61.38
2019-03-10T11:07:49.766Z,60.61
2019-03-10T11:10:41.321Z,60.81
2019-03-10T11:13:22.673Z,61.46
2019-03-10T11:15:59.307Z,60.26
2019-03-10T11:18:36.989Z,59.19
2019-03-10T11:21:11.326Z,59.19
2019-03-10T11:23:47.835Z,60.03
2019-03-10T11:26:28.178Z,58.92
2019-03-10T11:29:15.315Z,58.67
2019-03-10T11:32:00.547Z,56.45
2019-03-10T11:34:37.633Z,54.48
2019-03-10T11:37:23.754Z,55.41
2019-03-10T11:40:11.405Z,57.03
2019-03-10T11:42:57.193Z,55.44
2019-03-10T11:45:39.639Z,55.38
2019-03-10T11:48:27.308Z,53.81
2019-03-10T11:51:08.237Z,53.84
2019-03-10T11:53:53.270Z,52.85
2019-03-10T11:56:38.912Z,53.17
2019-03-10T11:59:23.978Z,57.11
2019-03-10T12:02:16.290Z,54.98
2019-03-10T12:05:12.908Z,54.08
2019-03-10T12:07:51.219Z,54.24
2019-03-10T12:10:21.599Z,50.57
2019-03-10T12:12:50.426Z,51.41
2019-03-10T12:15:19.537Z,53.41
2019-03-10T12:17:48.185Z,51.21
2019-03-10T12:20:17.121Z,50.57
2019-03-10T12:22:45.764Z,48.54
2019-03-10T12:25:14.811Z,47.77
2019-03-10T12:27:43.871Z,49.80
2019-03-10T12:30:13.003Z,48.57
2019-03-10T12:32:41.996Z,47.88
2019-03-10T12:35:10.689Z,46.96
2019-03-10T12:37:39.654Z,45.24
2019-03-10T12:40:08.956Z,44.93
2019-03-10T12:42:37.585Z,45.93
2019-03-10T12:45:07.275Z,43.75
2019-03-10T12:47:35.919Z,45.15
2019-03-10T12:50:05.287Z,46.25
2019-03-10T12:52:34.562Z,47.76
2019-03-10T12:55:03.255Z,48.57
2019-03-10T12:57:32.220Z,47.75
2019-03-10T13:00:01.422Z,48.34
2019-03-10T13:02:30.311Z,45.12
2019-03-10T13:04:59.205Z,44.50
2019-03-10T13:07:28.096Z,43.95
2019-03-10T13:09:56.987Z,44.40
2019-03-10T13:12:25.978Z,45.19
2019-03-10T13:14:59.463Z,45.07
2019-03-10T13:17:25.296Z,45.21
2019-03-10T13:19:54.012Z,46.14
2019-03-10T13:22:22.976Z,47.74
2019-03-10T13:24:52.175Z,48.00
2019-03-10T13:27:21.477Z,47.30
2019-03-10T13:29:50.469Z,48.52
2019-03-10T13:32:19.116Z,47.60
2019-03-10T13:34:47.760Z,47.67
2019-03-10T13:37:16.734Z,47.02
2019-03-10T13:39:45.639Z,48.36
2019-03-10T13:42:14.551Z,45.30
2019-03-10T13:44:43.415Z,45.30
2019-03-10T13:47:12.414Z,44.40
2019-03-10T13:49:41.130Z,45.70
2019-03-10T13:52:09.821Z,45.29
2019-03-10T13:54:38.465Z,46.31
2019-03-10T13:57:07.362Z,46.81
2019-03-10T13:59:36.243Z,47.74
2019-03-10T14:02:04.979Z,47.91
2019-03-10T14:04:33.945Z,49.26
2019-03-10T14:07:03.474Z,49.61
2019-03-10T14:09:32.324Z,48.69
2019-03-10T14:12:01.212Z,50.64
2019-03-10T14:14:30.211Z,51.72
2019-03-10T14:16:59.821Z,53.30
2019-03-10T14:19:28.548Z,50.61
2019-03-10T14:21:57.596Z,52.45
2019-03-10T14:24:26.599Z,53.59
2019-03-10T14:26:55.267Z,54.14
2019-03-10T14:29:24.575Z,52.94
2019-03-10T14:31:53.590Z,53.32
2019-03-10T14:34:22.247Z,53.36
2019-03-10T14:36:51.165Z,52.47
2019-03-10T14:39:20.145Z,49.98
2019-03-10T14:41:48.818Z,49.74
2019-03-10T14:44:17.463Z,51.83
2019-03-10T14:46:47.666Z,51.83
2019-03-10T14:49:23.080Z,52.10
2019-03-10T14:51:46.957Z,52.27
2019-03-10T14:54:15.592Z,52.27
2019-03-10T14:56:44.256Z,53.23
2019-03-10T14:59:13.220Z,53.93
2019-03-10T15:01:41.902Z,54.39
2019-03-10T15:04:11.205Z,54.85
2019-03-10T15:06:40.205Z,54.34
2019-03-10T15:09:09.520Z,55.48
2019-03-10T15:11:38.148Z,55.73
2019-03-10T15:14:06.845Z,55.50
2019-03-10T15:16:35.597Z,55.67
2019-03-10T15:19:04.555Z,55.94
2019-03-10T15:21:33.852Z,56.50
2019-03-10T15:24:02.508Z,56.81
2019-03-10T15:26:31.726Z,57.19
2019-03-10T15:29:01.054Z,57.19
2019-03-10T15:31:29.982Z,57.75
2019-03-10T15:33:58.732Z,57.64
2019-03-10T15:36:29.298Z,58.36
2019-03-10T15:38:57.987Z,58.36
2019-03-10T15:41:27.256Z,58.55
2019-03-10T15:43:56.542Z,58.75
2019-03-10T15:46:25.441Z,58.72
2019-03-10T15:48:54.407Z,59.17
2019-03-10T15:51:23.423Z,58.78
2019-03-10T15:53:52.265Z,59.23
2019-03-10T15:56:20.914Z,59.63
2019-03-10T15:58:50.305Z,59.42
2019-03-10T16:01:18.965Z,59.25
2019-03-10T16:03:47.873Z,60.13
2019-03-10T16:06:16.867Z,60.66
2019-03-10T16:08:45.761Z,60.31
2019-03-10T16:11:14.631Z,59.70
2019-03-10T16:13:43.391Z,60.29
2019-03-10T16:16:12.330Z,60.46
2019-03-10T16:18:40.958Z,60.66
2019-03-10T16:21:09.921Z,60.48
2019-03-10T16:23:39.217Z,61.06
2019-03-10T16:26:07.815Z,61.53
2019-03-10T16:28:37.116Z,61.69
2019-03-10T16:31:05.982Z,61.99
2019-03-10T16:33:34.633Z,62.60
2019-03-10T16:36:03.547Z,62.66
2019-03-10T16:38:32.543Z,62.29
2019-03-10T16:41:01.184Z,63.28
2019-03-10T16:43:30.136Z,63.52
2019-03-10T16:45:58.839Z,63.93
2019-03-10T16:48:27.463Z,64.53
2019-03-10T16:50:56.095Z,66.28
2019-03-10T16:53:25.311Z,67.33
2019-03-10T16:56:02.438Z,68.05
2019-03-10T16:58:24.987Z,69.37
2019-03-10T17:00:53.617Z,69.37
2019-03-10T17:03:22.907Z,70.29
2019-03-10T17:05:51.568Z,71.64
2019-03-10T17:08:20.187Z,71.64
2019-03-10T17:10:48.887Z,72.44
2019-03-10T17:13:17.872Z,72.33
2019-03-10T17:15:46.954Z,72.57
2019-03-10T17:18:15.957Z,72.48
2019-03-10T17:20:45.355Z,72.48
2019-03-10T17:23:14.249Z,72.15
2019-03-10T17:25:43.233Z,71.66
2019-03-10T17:28:12.228Z,71.66
2019-03-10T17:30:41.058Z,71.43
2019-03-10T17:33:10.001Z,71.00
2019-03-10T17:35:38.902Z,70.83
2019-03-10T17:38:07.551Z,70.79
2019-03-10T17:40:36.581Z,71.05
2019-03-10T17:43:08.020Z,71.05
2019-03-10T17:45:37.341Z,70.81
2019-03-10T17:48:06.335Z,70.81
2019-03-10T17:50:35.230Z,71.34
2019-03-10T17:53:03.838Z,71.96
2019-03-10T17:55:32.605Z,71.53
2019-03-10T17:58:01.590Z,70.74
2019-03-10T18:00:31.094Z,70.30
2019-03-10T18:03:00.002Z,70.63
2019-03-10T18:05:28.994Z,70.63
2019-03-10T18:07:58.301Z,70.99
2019-03-10T18:10:27.171Z,71.28
2019-03-10T18:12:56.066Z,71.22
2019-03-10T18:15:25.369Z,71.19
2019-03-10T18:17:54.232Z,71.25
2019-03-10T18:20:23.263Z,71.34
2019-03-10T18:22:52.548Z,70.87
2019-03-10T18:25:21.166Z,70.87
2019-03-10T18:27:50.134Z,71.00
2019-03-10T18:30:19.021Z,70.69
2019-03-10T18:32:48.634Z,71.39
2019-03-10T18:35:17.343Z,71.25
2019-03-10T18:37:45.960Z,71.25
2019-03-10T18:40:18.547Z,71.76
2019-03-10T18:42:47.265Z,71.76
2019-03-10T18:45:17.281Z,72.31
2019-03-10T18:47:46.101Z,72.46
2019-03-10T18:50:17.951Z,72.46
2019-03-10T18:52:46.727Z,72.71
2019-03-10T18:55:15.680Z,73.26
2019-03-10T18:57:44.630Z,73.55
2019-03-10T19:00:18.652Z,73.52
2019-03-10T19:02:47.354Z,73.01
2019-03-10T19:05:16.305Z,73.16
2019-03-10T19:07:45.703Z,73.16
2019-03-10T19:10:14.439Z,72.96
2019-03-10T19:12:43.711Z,73.59
2019-03-10T19:15:14.530Z,74.30
2019-03-10T19:17:43.184Z,74.68
2019-03-10T19:20:12.499Z,74.68
2019-03-10T19:22:41.443Z,74.56
2019-03-10T19:25:11.090Z,74.29
2019-03-10T19:27:39.739Z,74.29
2019-03-10T19:30:10.524Z,75.14
2019-03-10T19:32:39.434Z,75.14
2019-03-10T19:35:08.511Z,75.57
2019-03-10T19:37:37.169Z,75.57
2019-03-10T19:40:06.825Z,75.41
2019-03-10T19:42:35.434Z,75.61
2019-03-10T19:45:04.198Z,75.65
2019-03-10T19:47:32.846Z,75.13
2019-03-10T19:50:02.086Z,75.13
2019-03-10T19:52:31.377Z,75.23
2019-03-10T19:55:00.679Z,75.50
2019-03-10T19:57:29.327Z,75.73
2019-03-10T19:59:58.262Z,75.73
2019-03-10T20:02:26.913Z,76.39
2019-03-10T20:04:56.120Z,77.03
2019-03-10T20:07:25.339Z,77.01
2019-03-10T20:09:54.002Z,77.14
2019-03-10T20:12:22.636Z,77.24
2019-03-10T20:14:51.239Z,77.28
2019-03-10T20:17:20.495Z,77.25
2019-03-10T20:19:49.146Z,77.25
2019-03-10T20:22:17.751Z,77.62
2019-03-10T20:24:46.745Z,77.48
2019-03-10T20:27:15.586Z,78.24
2019-03-10T20:29:44.179Z,78.24
2019-03-10T20:32:14.172Z,78.38
2019-03-10T20:34:43.087Z,78.56
2019-03-10T20:37:11.735Z,78.90
2019-03-10T20:39:40.623Z,78.98
2019-03-10T20:42:12.094Z,79.75
2019-03-10T20:44:40.567Z,79.49
2019-03-10T20:47:09.238Z,79.30
2019-03-10T20:49:37.875Z,79.30
2019-03-10T20:52:06.507Z,78.72
2019-03-10T20:54:35.144Z,78.60
2019-03-10T20:57:04.077Z,78.46
2019-03-10T20:59:32.997Z,78.23
2019-03-10T21:02:01.871Z,78.42
2019-03-10T21:04:30.791Z,77.69
2019-03-10T21:07:00.064Z,77.69
2019-03-10T21:09:29.055Z,77.58
2019-03-10T21:11:58.127Z,77.58
2019-03-10T21:14:26.788Z,77.83
2019-03-10T21:16:55.758Z,78.25
2019-03-10T21:19:25.168Z,78.58
2019-03-10T21:21:54.432Z,78.41
2019-03-10T21:24:23.429Z,78.72
2019-03-10T21:26:52.042Z,79.00
2019-03-10T21:29:21.317Z,78.87
2019-03-10T21:31:50.637Z,78.87
2019-03-10T21:34:19.617Z,79.17
2019-03-10T21:36:49.075Z,79.32
2019-03-10T21:39:18.008Z,79.08
2019-03-10T21:41:46.895Z,78.93
2019-03-10T21:44:25.896Z,78.84
2019-03-10T21:46:46.319Z,78.67
2019-03-10T21:49:15.208Z,79.15
2019-03-10T21:51:44.266Z,78.65
2019-03-10T21:54:13.194Z,78.42
2019-03-10T21:56:41.852Z,78.37
2019-03-10T21:59:10.606Z,78.58
2019-03-10T22:01:39.264Z,78.50
2019-03-10T22:04:07.869Z,78.60
2019-03-10T22:06:36.842Z,78.61
2019-03-10T22:09:06.543Z,78.21
2019-03-10T22:11:35.667Z,78.25
2019-03-10T22:14:04.637Z,78.39
2019-03-10T22:16:33.355Z,78.54
2019-03-10T22:19:02.313Z,78.60
2019-03-10T22:21:31.020Z,79.81
2019-03-10T22:23:59.918Z,78.16
2019-03-10T22:26:28.837Z,78.25
2019-03-10T22:28:58.351Z,77.71
2019-03-10T22:31:27.698Z,77.03
2019-03-10T22:33:56.892Z,77.25
2019-03-10T22:36:25.892Z,76.88
2019-03-10T22:38:54.830Z,75.39
2019-03-10T22:41:23.665Z,75.18
2019-03-10T22:43:52.582Z,74.25
2019-03-10T22:46:21.449Z,73.30
2019-03-10T22:48:50.450Z,73.19
2019-03-10T22:51:19.744Z,73.22
2019-03-10T22:53:48.740Z,73.04
2019-03-10T22:56:17.832Z,72.56
2019-03-10T22:58:46.827Z,72.36
2019-03-10T23:01:15.923Z,71.30
2019-03-10T23:03:44.820Z,71.23
2019-03-10T23:06:13.705Z,71.29
2019-03-10T23:08:43.019Z,71.10
2019-03-10T23:11:12.017Z,70.35
2019-03-10T23:13:41.203Z,69.93
2019-03-10T23:16:10.314Z,69.65
2019-03-10T23:18:39.290Z,69.47
2019-03-10T23:21:07.959Z,69.47
2019-03-10T23:23:36.871Z,69.49
2019-03-10T23:26:05.526Z,69.26
2019-03-10T23:28:34.858Z,69.19
2019-03-10T23:31:03.751Z,68.94
2019-03-10T23:33:32.389Z,68.84
2019-03-10T23:36:01.036Z,68.74
2019-03-10T23:38:30.028Z,69.10
2019-03-10T23:40:59.545Z,68.98
2019-03-10T23:43:28.227Z,68.86
2019-03-10T23:45:57.093Z,69.10
2019-03-10T23:48:25.689Z,69.21
2019-03-10T23:50:54.675Z,69.18
2019-03-10T23:53:23.327Z,69.32
2019-03-10T23:55:52.557Z,69.29
2019-03-10T23:58:21.209Z,69.43
